Kezdőlap
METAR-TAF:

METAR-TAF

Repülőterek :

Kuvaitváros, Kuvait

földrajzi szélesség: 29-13N, földrajzi hosszúság: 047-59E, magasság: 55 m

Jelenlegi meteorológiai megfigyelések

A jelentés 5 perccel ezelõtt készült, 23:00 UTC
Északi szél 8 kt
Hőmérséklet 38°C
Páratartalom 19%
Légköri nyomás 995 hPa
Látótávolság 10 km, vagy több
felhőtlen 1500 m magasságban, és nincs gomolyfelhõ

METAR: OKBK 152300Z 35008KT CAVOK 38/10 Q0995 NOSIG

Idő: 02:05 (23:05 UTC)

Előrejelzés

A jelentés 6 órával és 20 perccel ezelõtt készült, 16:45 UTC
Az előrejelzés 15-én 18 óra UTC és 16-én 24 óra UTC között érvényes
Észak-északnyugati szél 12 kt
Látótávolság: 7000 m
Derült ég

TAF: OKBK 151645Z 1518/1624 33012KT 7000 SKC

Meteorológiai megfigyelések és előrejelzések több, mint 4000 repülőtéren (METAR és TAF jelentéseket).

A térképen piros és sárga pontok jelzik az elérhető meteorológiai állomásokat.

Mozgassa az egeret a pont fölött, hogy megjelenjen az állomás neve.

Azután kattintson az időjárási megfigyelések és előrejelzések megtekintéséhez.

A térkép megváltoztatása: kattintson a fekete keresztel jelölt zöld gombra ráközelítéshez, a vonallal jelölt zöld gombra távolításhoz, vagy a zöld nyilakra a szomszédos térképek eléréséhez.


METAR-TAF: